Time;durP1;ratioP1;P1;durP2;ratioP2;P2;SDS_P1;SDS_P2;PMS_P1;PMS_P2;Temp;Humidity;BMP_temperature;BMP_pressure;BME280_temperature;BME280_humidity;BME280_pressure;Samples;Min_cycle;Max_cycle;Signal;HPM_P1;HPM_P2
2022/05/11 00:01:38;;;;;;;9.47;8.23;;;;;;;16.13;92.47;99975.59;5069469;28;20641;-63
2022/05/11 00:04:08;;;;;;;11.53;10.33;;;;;;;16.22;91.17;99977.44;5061351;28;20236;-63
2022/05/11 00:06:35;;;;;;;8.03;7.13;;;;;;;16.16;91.76;99964.94;5054227;28;20591;-63
2022/05/11 00:09:01;;;;;;;7.87;6.97;;;;;;;16.14;92.35;99974.66;5054486;28;20674;-63
2022/05/11 00:11:27;;;;;;;7.80;6.60;;;;;;;16.24;91.38;99969.56;5066085;28;20585;-63
2022/05/11 00:13:54;;;;;;;11.67;9.23;;;;;;;16.14;91.67;99966.88;5057477;28;20219;-63
2022/05/11 00:16:19;;;;;;;10.47;9.40;;;;;;;16.06;92.60;99964.06;5053195;28;20221;-62
2022/05/11 00:18:45;;;;;;;8.97;8.17;;;;;;;16.05;93.20;99965.00;5053843;28;20174;-63
2022/05/11 00:21:11;;;;;;;10.63;9.40;;;;;;;15.93;93.43;99967.63;5053002;28;20228;-62
2022/05/11 00:23:37;;;;;;;10.77;9.70;;;;;;;15.78;95.68;99968.81;5061233;28;20282;-61
2022/05/11 00:26:02;;;;;;;6.83;5.93;;;;;;;15.82;95.25;99967.66;5053797;28;20190;-64
2022/05/11 00:28:28;;;;;;;8.17;7.40;;;;;;;15.82;95.39;99968.47;5054380;28;20174;-63
2022/05/11 00:30:53;;;;;;;8.93;8.03;;;;;;;15.78;95.31;99967.03;5050951;28;20232;-63
2022/05/11 00:33:19;;;;;;;7.67;6.87;;;;;;;15.85;94.42;99956.22;5063677;28;20231;-62
2022/05/11 00:35:47;;;;;;;12.73;10.23;;;;;;;15.86;94.52;99958.66;5053846;28;20227;-62
2022/05/11 00:38:12;;;;;;;8.33;7.53;;;;;;;15.82;94.19;99954.69;5053471;28;20177;-63
2022/05/11 00:40:47;;;;;;;7.20;6.40;;;;;;;15.69;95.39;99951.38;5047679;28;20228;-63
2022/05/11 00:43:12;;;;;;;25.60;19.83;;;;;;;15.53;96.80;99956.94;5064583;28;20205;-63
2022/05/11 00:45:45;;;;;;;7.20;6.60;;;;;;;15.40;99.34;99952.69;5053817;28;20177;-62
2022/05/11 00:50:58;;;;;;;9.70;7.53;;;;;;;15.24;100.00;99954.81;5052421;28;20243;-63
2022/05/11 00:53:24;;;;;;;8.73;7.40;;;;;;;15.16;100.00;99950.22;5061045;28;20186;-63
2022/05/11 00:55:53;;;;;;;7.07;6.40;;;;;;;15.06;100.00;99947.50;5048978;28;20244;-63
2022/05/11 00:58:26;;;;;;;11.83;10.60;;;;;;;15.12;100.00;99949.63;5033401;28;20206;-64
2022/05/11 01:00:53;;;;;;;7.97;7.17;;;;;;;15.23;100.00;99954.00;5037209;28;20365;-62
2022/05/11 01:03:23;;;;;;;8.20;7.40;;;;;;;15.36;100.00;99946.09;5042497;28;20599;-63
2022/05/11 01:05:48;;;;;;;13.70;12.23;;;;;;;15.38;100.00;99944.22;5033342;28;20261;-63
2022/05/11 01:08:16;;;;;;;9.00;8.20;;;;;;;15.30;100.00;99944.78;5048560;28;20262;-63
2022/05/11 01:10:43;;;;;;;17.30;15.53;;;;;;;15.28;100.00;99946.69;5047357;28;20798;-63
2022/05/11 01:13:13;;;;;;;12.03;10.87;;;;;;;15.17;100.00;99942.34;5060459;28;20676;-63
2022/05/11 01:15:39;;;;;;;11.00;9.60;;;;;;;15.15;100.00;99948.56;5051714;28;20664;-63
2022/05/11 01:18:07;;;;;;;11.10;10.10;;;;;;;15.07;100.00;99946.56;5052768;28;20174;-64
2022/05/11 01:20:35;;;;;;;9.30;8.40;;;;;;;15.04;100.00;99943.38;5046376;28;20303;-63
2022/05/11 01:23:03;;;;;;;9.10;8.23;;;;;;;15.01;100.00;99941.84;5064546;28;20260;-62
2022/05/11 01:25:30;;;;;;;11.83;10.63;;;;;;;14.99;100.00;99935.97;5051700;28;20173;-63
2022/05/11 01:28:11;;;;;;;26.37;22.20;;;;;;;14.82;100.00;99935.47;5067954;28;20588;-64
2022/05/11 01:30:48;;;;;;;10.47;8.93;;;;;;;14.91;100.00;99940.88;5060881;28;20228;-63
2022/05/11 01:33:23;;;;;;;10.30;9.30;;;;;;;14.87;100.00;99939.47;5062019;28;20177;-63
2022/05/11 01:35:59;;;;;;;8.50;7.80;;;;;;;14.75;100.00;99938.63;5051527;28;20245;-63
2022/05/11 01:38:41;;;;;;;9.47;8.57;;;;;;;14.52;100.00;99936.78;5050871;28;20181;-63
2022/05/11 01:41:32;;;;;;;16.80;15.03;;;;;;;14.42;100.00;99929.81;5050276;28;20317;-64
2022/05/11 01:43:58;;;;;;;15.60;12.83;;;;;;;14.49;100.00;99936.19;5045342;28;20263;-62
2022/05/11 01:46:24;;;;;;;15.03;13.53;;;;;;;14.40;100.00;99935.09;5052207;28;20197;-63
2022/05/11 01:48:50;;;;;;;17.93;16.17;;;;;;;14.37;100.00;99930.13;5046929;28;20625;-62
2022/05/11 01:51:17;;;;;;;10.20;9.17;;;;;;;14.29;100.00;99928.13;5054652;28;20223;-63
2022/05/11 01:53:43;;;;;;;15.30;13.77;;;;;;;14.27;100.00;99918.81;5064121;28;20173;-63
2022/05/11 01:56:09;;;;;;;10.43;8.90;;;;;;;14.20;100.00;99927.03;5052266;28;20182;-63
2022/05/11 01:58:35;;;;;;;15.47;13.30;;;;;;;14.29;100.00;99922.94;5067804;28;20523;-62
2022/05/11 02:01:01;;;;;;;12.83;11.50;;;;;;;14.13;100.00;99915.47;5052069;28;20227;-64
2022/05/11 02:03:26;;;;;;;33.53;27.20;;;;;;;14.16;100.00;99920.41;5068653;28;20548;-64
2022/05/11 02:08:39;;;;;;;15.67;12.00;;;;;;;14.07;100.00;99923.69;5052414;28;20580;-63
2022/05/11 02:11:05;;;;;;;17.47;15.40;;;;;;;14.08;100.00;99934.84;5058474;28;20223;-65
2022/05/11 02:13:32;;;;;;;22.57;18.40;;;;;;;13.87;100.00;99938.84;5067586;28;20224;-64
2022/05/11 02:15:58;;;;;;;13.43;11.47;;;;;;;13.93;100.00;99927.25;5050534;28;20271;-67
2022/05/11 02:18:23;;;;;;;9.93;8.90;;;;;;;13.85;100.00;99939.91;5050388;28;20584;-65
2022/05/11 02:20:49;;;;;;;26.57;22.20;;;;;;;13.88;100.00;99937.91;5047716;28;20240;-65
2022/05/11 02:23:16;;;;;;;11.00;8.83;;;;;;;13.83;100.00;99932.25;5050933;28;20201;-61
2022/05/11 02:25:43;;;;;;;11.00;10.00;;;;;;;13.74;100.00;99935.47;5050516;28;20644;-63
2022/05/11 02:28:10;;;;;;;9.80;8.80;;;;;;;13.78;100.00;99942.09;5051615;28;20261;-63
2022/05/11 02:30:35;;;;;;;15.33;11.97;;;;;;;13.79;100.00;99933.41;5045440;28;20315;-63
2022/05/11 02:33:00;;;;;;;15.17;13.67;;;;;;;13.70;100.00;99934.06;5050550;28;20725;-64
2022/05/11 02:35:26;;;;;;;13.43;11.97;;;;;;;13.66;100.00;99940.38;5052083;28;20212;-64
2022/05/11 02:38:01;;;;;;;10.67;9.63;;;;;;;13.64;100.00;99937.06;5051554;28;20193;-63
2022/05/11 02:40:29;;;;;;;8.60;7.90;;;;;;;13.69;100.00;99932.41;5044377;28;20707;-64
2022/05/11 02:42:55;;;;;;;17.43;15.43;;;;;;;13.68;100.00;99929.00;5067057;28;20187;-63
2022/05/11 02:45:22;;;;;;;11.10;10.00;;;;;;;13.66;100.00;99933.44;5050107;28;20231;-65
2022/05/11 02:47:48;;;;;;;16.50;14.83;;;;;;;13.60;100.00;99928.69;5041439;28;20180;-64
2022/05/11 02:50:17;;;;;;;28.90;22.80;;;;;;;13.59;100.00;99932.22;5044816;28;20226;-64
2022/05/11 02:52:42;;;;;;;10.13;9.13;;;;;;;13.59;100.00;99926.22;5065110;28;20169;-64
2022/05/11 02:55:08;;;;;;;9.40;8.60;;;;;;;13.51;100.00;99926.78;5052038;28;20182;-64
2022/05/11 02:57:33;;;;;;;14.67;13.03;;;;;;;13.44;100.00;99921.19;5051029;28;20170;-63
2022/05/11 02:59:59;;;;;;;9.73;8.80;;;;;;;13.48;100.00;99924.38;5051517;28;20184;-64
2022/05/11 03:02:25;;;;;;;9.90;9.07;;;;;;;13.47;100.00;99922.72;5046784;28;20696;-64
2022/05/11 03:04:51;;;;;;;19.27;13.40;;;;;;;13.48;100.00;99925.22;5051788;28;20250;-64
2022/05/11 03:07:17;;;;;;;9.63;8.53;;;;;;;13.42;100.00;99919.63;5051090;28;20187;-64
2022/05/11 03:09:42;;;;;;;11.67;10.47;;;;;;;13.28;100.00;99921.38;5051097;28;20288;-63
2022/05/11 03:12:09;;;;;;;10.57;9.57;;;;;;;13.37;100.00;99927.66;5075911;28;20236;-63
2022/05/11 03:14:34;;;;;;;17.53;15.63;;;;;;;13.38;100.00;99914.69;5051411;28;20595;-63
2022/05/11 03:17:01;;;;;;;12.63;11.20;;;;;;;13.55;100.00;99912.69;5038778;28;20246;-59
2022/05/11 03:19:26;;;;;;;11.03;9.97;;;;;;;13.55;100.00;99918.69;5050774;28;20483;-60
2022/05/11 03:21:52;;;;;;;11.80;10.70;;;;;;;13.56;100.00;99920.34;5050883;28;20307;-59
2022/05/11 03:24:18;;;;;;;10.27;9.37;;;;;;;13.65;100.00;99908.53;5034113;28;20201;-59
2022/05/11 03:26:43;;;;;;;28.10;21.80;;;;;;;13.66;100.00;99905.00;5031003;28;20210;-64
2022/05/11 03:29:09;;;;;;;16.93;13.87;;;;;;;13.42;100.00;99909.31;5031480;28;20212;-64
2022/05/11 03:31:35;;;;;;;23.10;20.10;;;;;;;13.40;100.00;99904.25;5012714;28;20243;-64
2022/05/11 03:36:47;;;;;;;12.63;11.13;;;;;;;13.15;100.00;99911.06;5024189;28;20300;-63
2022/05/11 03:39:15;;;;;;;11.90;10.70;;;;;;;13.20;100.00;99911.59;5031501;28;20198;-63
2022/05/11 03:41:41;;;;;;;16.03;12.77;;;;;;;13.26;100.00;99912.94;5033132;28;20232;-63
2022/05/11 03:44:06;;;;;;;11.53;10.43;;;;;;;13.24;100.00;99920.75;5041518;28;20218;-63
2022/05/11 03:46:31;;;;;;;12.57;11.27;;;;;;;13.29;100.00;99911.91;5023869;28;20240;-63
2022/05/11 03:48:57;;;;;;;11.00;9.90;;;;;;;13.26;100.00;99912.94;5031494;28;20716;-63
2022/05/11 03:51:24;;;;;;;9.50;8.60;;;;;;;13.07;100.00;99914.19;5042766;28;20236;-63
2022/05/11 03:53:49;;;;;;;10.73;9.77;;;;;;;13.10;100.00;99909.72;5035404;28;20181;-64
2022/05/11 03:56:15;;;;;;;10.97;9.90;;;;;;;13.10;100.00;99904.56;5033052;28;20613;-65
2022/05/11 03:58:41;;;;;;;15.33;13.73;;;;;;;13.07;100.00;99903.88;5067076;28;20991;-63
2022/05/11 04:01:06;;;;;;;12.47;11.27;;;;;;;13.09;100.00;99906.34;5050703;28;20248;-63
2022/05/11 04:03:31;;;;;;;15.90;11.93;;;;;;;13.17;100.00;99900.63;5077800;28;20667;-63
2022/05/11 04:05:57;;;;;;;10.87;9.87;;;;;;;13.20;100.00;99906.41;5054754;28;20182;-64
2022/05/11 04:08:22;;;;;;;10.67;9.47;;;;;;;13.23;100.00;99895.91;5054621;28;20181;-63
2022/05/11 04:10:47;;;;;;;15.67;11.37;;;;;;;13.28;100.00;99905.06;5056286;28;20812;-64
2022/05/11 04:13:13;;;;;;;12.77;11.57;;;;;;;13.37;100.00;99904.41;5074484;28;20621;-63
2022/05/11 04:15:38;;;;;;;11.20;10.10;;;;;;;13.39;100.00;99900.81;5054302;28;20217;-63
2022/05/11 04:18:03;;;;;;;11.30;10.23;;;;;;;13.52;100.00;99898.22;5054146;28;20638;-64
2022/05/11 04:20:29;;;;;;;10.70;9.60;;;;;;;13.58;100.00;99898.72;5047385;28;20750;-63
2022/05/11 04:22:55;;;;;;;10.00;9.10;;;;;;;13.61;100.00;99898.53;5066366;28;20504;-63
2022/05/11 04:25:21;;;;;;;11.87;8.63;;;;;;;13.76;100.00;99894.03;5054308;28;20224;-63
2022/05/11 04:27:48;;;;;;;9.83;8.93;;;;;;;13.85;100.00;99896.78;5053580;28;20177;-63
2022/05/11 04:30:15;;;;;;;10.43;9.33;;;;;;;13.88;100.00;99886.22;5044232;28;20174;-63
2022/05/11 04:32:40;;;;;;;9.00;8.20;;;;;;;14.05;100.00;99886.75;5052904;28;20635;-63
2022/05/11 04:35:07;;;;;;;10.13;9.13;;;;;;;14.15;100.00;99890.34;5054108;28;20174;-62
2022/05/11 04:37:32;;;;;;;9.40;8.27;;;;;;;14.20;100.00;99888.22;5051997;28;20177;-63
2022/05/11 04:39:58;;;;;;;8.57;7.80;;;;;;;14.28;100.00;99887.66;5053924;28;20225;-64
2022/05/11 04:42:23;;;;;;;9.43;8.57;;;;;;;14.28;100.00;99897.19;5050179;28;20827;-63
2022/05/11 04:44:49;;;;;;;8.90;8.00;;;;;;;14.25;100.00;99898.25;5034011;28;20578;-63
2022/05/11 04:47:17;;;;;;;8.73;7.93;;;;;;;14.33;100.00;99895.91;5033590;28;20198;-63
2022/05/11 04:49:43;;;;;;;8.67;7.97;;;;;;;14.40;100.00;99898.03;5033775;28;20171;-64
2022/05/11 04:52:13;;;;;;;9.67;8.67;;;;;;;14.40;100.00;99896.28;5057920;28;20290;-63
2022/05/11 04:54:41;;;;;;;9.03;8.23;;;;;;;14.41;100.00;99894.53;5049011;28;20205;-63
2022/05/11 04:57:07;;;;;;;11.47;8.70;;;;;;;14.41;100.00;99895.31;5033356;28;20184;-63
2022/05/11 04:59:33;;;;;;;9.17;8.23;;;;;;;14.43;100.00;99900.41;5033943;28;20534;-62
2022/05/11 05:01:59;;;;;;;9.73;8.57;;;;;;;14.61;100.00;99903.38;5054174;28;20231;-63
2022/05/11 05:04:27;;;;;;;9.37;8.57;;;;;;;14.69;100.00;99901.91;5034773;28;20201;-64
2022/05/11 05:06:52;;;;;;;9.67;8.77;;;;;;;14.85;100.00;99900.75;5047653;28;20174;-64
2022/05/11 05:09:18;;;;;;;10.97;8.87;;;;;;;15.06;100.00;99900.03;5033499;28;20182;-62
2022/05/11 05:11:43;;;;;;;9.70;8.70;;;;;;;15.31;100.00;99907.59;5055193;28;20301;-63
2022/05/11 05:14:08;;;;;;;11.10;8.23;;;;;;;15.46;100.00;99907.34;5031891;28;20598;-63
2022/05/11 05:16:34;;;;;;;9.40;7.87;;;;;;;15.70;100.00;99898.56;5052930;28;20634;-64
2022/05/11 05:18:59;;;;;;;10.53;8.80;;;;;;;16.02;100.00;99903.00;5053386;28;20180;-63
2022/05/11 05:21:25;;;;;;;9.17;8.27;;;;;;;16.33;97.20;99903.09;5053299;28;20220;-62
2022/05/11 05:23:50;;;;;;;9.53;8.63;;;;;;;16.50;94.37;99902.53;5058340;28;20220;-63
2022/05/11 05:26:15;;;;;;;10.77;8.87;;;;;;;16.68;91.81;99904.53;5053177;28;20264;-64
2022/05/11 05:31:27;;;;;;;9.30;8.50;;;;;;;17.16;88.42;99906.56;5053818;28;20235;-63
2022/05/11 05:33:59;;;;;;;9.90;8.80;;;;;;;17.36;86.96;99910.06;5068488;28;20173;-63
2022/05/11 05:36:29;;;;;;;9.97;9.10;;;;;;;17.26;85.93;99917.81;5051046;28;20178;-63
2022/05/11 05:38:56;;;;;;;11.03;9.90;;;;;;;17.30;86.44;99918.38;5049059;28;20185;-63
2022/05/11 05:41:22;;;;;;;9.93;9.03;;;;;;;17.45;84.58;99916.22;5054873;28;20228;-64
2022/05/11 05:43:47;;;;;;;10.60;9.50;;;;;;;17.56;83.80;99916.16;5063580;28;20299;-63
2022/05/11 05:46:16;;;;;;;12.70;9.03;;;;;;;17.43;83.44;99918.16;5052520;28;20193;-62
2022/05/11 05:48:41;;;;;;;10.77;9.53;;;;;;;17.18;84.85;99917.66;5067875;28;20299;-62
2022/05/11 05:51:09;;;;;;;10.60;9.60;;;;;;;17.14;85.19;99916.28;5070106;28;20672;-63
2022/05/11 05:53:35;;;;;;;13.63;10.40;;;;;;;17.00;85.41;99916.63;5042092;28;20177;-63
2022/05/11 05:56:01;;;;;;;15.80;9.80;;;;;;;17.02;86.30;99919.94;5051086;28;20170;-69
2022/05/11 05:58:27;;;;;;;10.33;9.43;;;;;;;17.02;86.14;99915.56;5064817;28;20189;-64
2022/05/11 06:00:53;;;;;;;11.33;10.20;;;;;;;16.93;86.22;99917.16;5050974;28;20223;-65
2022/05/11 06:03:20;;;;;;;14.97;11.00;;;;;;;16.99;86.84;99912.38;5068180;28;20176;-64
2022/05/11 06:05:45;;;;;;;15.57;10.63;;;;;;;16.88;87.80;99918.44;5031613;28;20174;-64
2022/05/11 06:08:15;;;;;;;11.10;10.10;;;;;;;17.08;88.14;99922.81;5030199;28;20189;-64
2022/05/11 06:10:40;;;;;;;10.37;9.47;;;;;;;17.21;87.29;99916.59;5031919;28;20240;-63
2022/05/11 06:13:07;;;;;;;12.47;11.27;;;;;;;17.17;88.46;99916.03;5060666;28;20723;-63
2022/05/11 06:15:32;;;;;;;12.47;10.03;;;;;;;17.19;87.64;99916.72;5047109;28;20640;-63
2022/05/11 06:17:57;;;;;;;14.60;11.63;;;;;;;17.24;87.40;99916.31;5042458;28;20186;-63
2022/05/11 06:20:23;;;;;;;11.80;10.50;;;;;;;17.49;84.08;99915.03;5036407;28;20220;-62
2022/05/11 06:22:50;;;;;;;11.03;9.87;;;;;;;17.84;81.76;99912.91;5057613;28;20190;-63
2022/05/11 06:25:18;;;;;;;10.13;9.17;;;;;;;18.17;80.06;99908.28;5022246;28;20235;-64
2022/05/11 06:27:44;;;;;;;10.97;9.93;;;;;;;18.78;77.41;99907.09;5012999;28;20531;-63
2022/05/11 06:30:10;;;;;;;10.87;9.77;;;;;;;19.37;73.20;99914.69;5020468;28;20189;-64
2022/05/11 06:32:36;;;;;;;10.63;9.00;;;;;;;20.04;68.14;99911.81;5045651;28;20185;-64
2022/05/11 06:35:01;;;;;;;9.90;8.87;;;;;;;20.71;63.72;99907.91;5031593;28;20178;-63
2022/05/11 06:37:26;;;;;;;9.63;8.63;;;;;;;21.12;61.64;99911.56;5045181;28;20304;-63
2022/05/11 06:39:52;;;;;;;10.37;9.27;;;;;;;22.70;55.15;99912.59;5049022;28;20260;-62
2022/05/11 06:42:20;;;;;;;8.77;7.90;;;;;;;23.91;50.02;99915.00;5073295;28;20293;-62
2022/05/11 06:44:45;;;;;;;9.73;7.23;;;;;;;25.99;45.06;99912.53;5051215;28;20644;-64
2022/05/11 06:47:11;;;;;;;8.23;7.30;;;;;;;27.49;40.15;99909.59;5049915;28;20264;-63
2022/05/11 06:49:36;;;;;;;7.28;6.57;;;;;;;29.23;36.99;99914.72;5042150;28;20196;-64
2022/05/11 06:52:02;;;;;;;9.10;6.70;;;;;;;30.04;34.12;99923.03;5053830;28;20239;-62
2022/05/11 06:59:57;;;;;;;6.82;6.22;;;;;;;28.55;36.14;99917.78;5031554;28;20204;-61
2022/05/11 07:02:23;;;;;;;6.90;6.25;;;;;;;28.80;36.49;99916.13;5053523;28;20224;-60
2022/05/11 07:04:49;;;;;;;7.65;6.80;;;;;;;28.60;36.76;99918.75;5051688;28;20200;-61
2022/05/11 07:07:15;;;;;;;6.28;5.75;;;;;;;28.47;36.62;99922.25;5051011;28;20184;-62
2022/05/11 07:09:41;;;;;;;6.60;6.05;;;;;;;29.11;35.81;99914.56;5050989;28;20174;-61
2022/05/11 07:12:32;;;;;;;8.40;6.03;;;;;;;29.53;35.27;99916.81;5058854;28;20655;-60
2022/05/11 07:14:59;;;;;;;6.25;5.65;;;;;;;29.18;36.17;99919.84;5051761;28;20181;-60
2022/05/11 07:17:35;;;;;;;6.22;5.57;;;;;;;30.10;34.99;99910.72;5073200;28;20250;-62
2022/05/11 07:20:09;;;;;;;5.43;4.93;;;;;;;30.89;34.39;99907.50;5051315;28;20183;-60
2022/05/11 07:22:34;;;;;;;7.10;5.88;;;;;;;31.67;31.83;99910.41;5033888;28;20309;-61
2022/05/11 07:25:00;;;;;;;7.65;5.22;;;;;;;31.18;32.31;99907.78;5051407;28;20654;-61
2022/05/11 07:27:25;;;;;;;5.05;4.65;;;;;;;29.97;34.03;99909.00;5050059;28;20177;-62
2022/05/11 07:29:52;;;;;;;4.68;4.28;;;;;;;30.56;34.72;99906.03;5052224;28;20315;-62
2022/05/11 07:32:18;;;;;;;6.05;4.25;;;;;;;31.41;32.97;99887.63;5032194;28;20695;-62
2022/05/11 07:34:43;;;;;;;6.32;3.25;;;;;;;30.06;33.16;99905.03;5056799;28;20182;-61
2022/05/11 07:37:09;;;;;;;3.10;2.90;;;;;;;31.39;31.43;99891.34;5071203;28;20240;-61
2022/05/11 07:39:35;;;;;;;3.33;3.03;;;;;;;31.13;31.46;99891.72;5035568;28;20186;-63
2022/05/11 07:42:00;;;;;;;3.88;3.28;;;;;;;31.47;30.57;99890.22;5040677;28;20233;-61
2022/05/11 07:44:26;;;;;;;3.30;3.00;;;;;;;32.33;30.30;99891.75;5016433;28;20213;-62
2022/05/11 07:46:52;;;;;;;3.25;2.90;;;;;;;32.06;30.22;99900.16;5026516;28;20633;-61
2022/05/11 07:49:18;;;;;;;3.55;3.25;;;;;;;31.81;30.50;99903.81;5030853;28;20179;-61
2022/05/11 07:51:45;;;;;;;3.10;2.90;;;;;;;32.60;29.15;99893.88;5045675;28;20232;-62
2022/05/11 07:54:11;;;;;;;4.95;3.10;;;;;;;30.77;30.75;99891.50;5040063;28;20244;-62
2022/05/11 08:02:04;;;;;;;3.30;2.97;;;;;;;29.69;34.06;99888.19;5057218;28;20362;-62
2022/05/11 08:04:30;;;;;;;3.55;3.22;;;;;;;30.69;32.54;99875.91;5024241;28;20293;-63
2022/05/11 08:06:55;;;;;;;3.28;3.00;;;;;;;31.85;30.07;99882.91;5025312;28;20225;-63
2022/05/11 08:09:21;;;;;;;4.55;3.35;;;;;;;32.60;29.54;99880.56;5022506;28;20191;-63
2022/05/11 08:11:47;;;;;;;3.05;2.72;;;;;;;32.51;30.14;99880.94;5053984;28;20240;-61
2022/05/11 08:14:14;;;;;;;4.22;3.13;;;;;;;31.89;29.75;99880.59;5050677;28;20584;-62
2022/05/11 08:16:40;;;;;;;7.55;3.03;;;;;;;32.88;28.15;99876.38;5052472;28;20218;-61
2022/05/11 08:19:05;;;;;;;3.40;2.55;;;;;;;33.60;27.43;99873.16;5054528;28;20212;-61
2022/05/11 08:21:33;;;;;;;3.60;2.90;;;;;;;32.29;28.29;99872.75;5055169;28;20255;-62
2022/05/11 08:23:59;;;;;;;3.05;2.70;;;;;;;30.43;31.45;99865.31;5053391;28;20563;-62
2022/05/11 08:26:24;;;;;;;5.95;2.95;;;;;;;30.11;32.57;99865.41;5054637;28;20174;-62
2022/05/11 08:28:50;;;;;;;3.20;2.90;;;;;;;31.71;29.85;99861.06;5054532;28;20181;-62
2022/05/11 08:33:59;;;;;;;2.60;2.28;;;;;;;31.75;29.51;99864.06;5046175;28;20664;-61
2022/05/11 08:36:26;;;;;;;2.83;2.50;;;;;;;32.79;28.36;99857.28;5045441;28;20213;-60
2022/05/11 08:38:57;;;;;;;3.88;3.10;;;;;;;34.00;27.12;99865.22;5054410;28;20192;-61
2022/05/11 08:41:47;;;;;;;3.97;2.75;;;;;;;34.13;26.64;99864.88;5064776;28;20691;-61
2022/05/11 08:44:18;;;;;;;3.50;3.20;;;;;;;35.04;24.91;99858.25;5049793;28;20292;-63
2022/05/11 08:47:11;;;;;;;9.05;2.65;;;;;;;34.58;25.39;99865.72;5050340;28;20500;-63
2022/05/11 08:49:52;;;;;;;6.28;3.00;;;;;;;34.14;25.93;99860.31;5047719;28;20193;-62
2022/05/11 08:52:46;;;;;;;5.53;2.65;;;;;;;35.37;24.69;99863.66;5043986;28;20244;-63
2022/05/11 08:55:28;;;;;;;2.70;2.13;;;;;;;36.79;23.33;99861.25;5014763;28;20184;-60
2022/05/11 08:57:56;;;;;;;2.72;2.53;;;;;;;36.71;23.01;99858.28;5013052;28;20289;-63
2022/05/11 09:00:22;;;;;;;5.93;2.50;;;;;;;36.34;22.89;99857.31;5024004;28;20260;-62
2022/05/11 09:02:52;;;;;;;3.28;2.35;;;;;;;36.33;22.43;99856.53;5059081;28;20174;-62
2022/05/11 09:05:20;;;;;;;3.60;2.42;;;;;;;35.61;23.70;99848.03;5032527;28;20205;-61
2022/05/11 09:07:49;;;;;;;3.05;2.75;;;;;;;35.87;24.06;99845.53;5032680;28;20200;-62
2022/05/11 09:10:22;;;;;;;2.80;2.55;;;;;;;34.83;24.65;99843.03;5060975;28;20178;-63
2022/05/11 09:12:55;;;;;;;2.85;2.58;;;;;;;37.23;22.21;99845.81;5048356;28;20281;-62
2022/05/11 09:15:21;;;;;;;3.78;2.50;;;;;;;36.67;22.47;99841.94;5027635;28;20735;-62
2022/05/11 09:17:46;;;;;;;5.05;2.35;;;;;;;37.58;22.10;99839.63;5020287;28;20261;-62
2022/05/11 09:20:23;;;;;;;2.80;2.30;;;;;;;36.94;21.84;99844.44;5025618;28;20291;-63
2022/05/11 09:23:05;;;;;;;2.50;2.30;;;;;;;37.56;21.42;99843.66;5049836;28;20181;-61
2022/05/11 09:25:37;;;;;;;8.05;2.40;;;;;;;37.40;20.71;99841.00;5052183;28;20213;-60
2022/05/11 09:28:13;;;;;;;4.80;2.53;;;;;;;37.22;22.04;99831.56;5052488;28;20188;-61
2022/05/11 09:30:39;;;;;;;3.42;2.47;;;;;;;37.70;21.35;99836.66;5046615;28;20833;-61
2022/05/11 09:33:16;;;;;;;3.80;2.58;;;;;;;37.46;21.09;99831.06;5055569;28;20269;-61
2022/05/11 09:35:44;;;;;;;2.53;2.20;;;;;;;36.83;21.15;99829.38;5053342;28;20232;-61
2022/05/11 09:38:34;;;;;;;2.92;2.72;;;;;;;37.68;20.67;99824.59;5052105;28;20242;-61
2022/05/11 09:41:22;;;;;;;4.03;3.15;;;;;;;36.39;22.13;99821.75;5042155;28;20905;-62
2022/05/11 09:43:54;;;;;;;6.13;2.75;;;;;;;38.04;20.71;99830.69;5041168;28;20198;-61
2022/05/11 09:46:33;;;;;;;3.10;2.83;;;;;;;36.90;20.63;99816.53;5032449;28;20182;-62
2022/05/11 09:49:16;;;;;;;4.68;2.30;;;;;;;36.37;22.78;99823.84;5033445;28;20193;-61
2022/05/11 09:52:05;;;;;;;2.58;2.20;;;;;;;36.18;22.10;99830.50;5049329;28;20228;-61
2022/05/11 09:54:38;;;;;;;5.43;2.55;;;;;;;37.45;20.30;99821.41;5032028;28;20197;-62
2022/05/11 09:57:03;;;;;;;6.40;2.75;;;;;;;37.42;21.42;99819.25;5030672;28;20181;-61
2022/05/11 09:59:36;;;;;;;3.78;2.40;;;;;;;37.01;21.75;99816.56;5032388;28;20193;-62
2022/05/11 10:02:19;;;;;;;5.88;2.58;;;;;;;36.21;21.43;99813.09;5065946;28;20223;-63
2022/05/11 10:05:09;;;;;;;3.83;2.58;;;;;;;35.78;22.53;99802.41;5052516;28;20250;-61
2022/05/11 10:08:01;;;;;;;2.80;2.30;;;;;;;35.67;22.53;99795.41;5035833;28;20189;-62
2022/05/11 10:10:33;;;;;;;9.07;2.75;;;;;;;37.47;21.72;99797.78;5047643;28;20227;-61
2022/05/11 10:13:14;;;;;;;7.00;2.45;;;;;;;37.37;21.00;99798.59;5076146;28;20201;-61
2022/05/11 10:24:10;;;;;;;3.78;2.42;;;;;;;36.17;21.34;99771.84;5056423;28;20204;-63
2022/05/11 10:27:13;;;;;;;5.30;2.55;;;;;;;36.54;21.54;99765.53;5049352;28;20659;-64
2022/05/11 10:29:53;;;;;;;3.53;2.30;;;;;;;35.42;23.07;99759.41;5014593;28;20619;-65
2022/05/11 10:32:29;;;;;;;5.47;2.30;;;;;;;36.29;22.39;99764.38;5057792;28;20377;-64
2022/05/11 10:35:31;;;;;;;4.90;2.28;;;;;;;37.27;21.88;99753.81;5052185;28;20644;-61
2022/05/11 10:38:16;;;;;;;3.55;2.15;;;;;;;36.89;20.84;99747.94;5031784;28;20232;-62
2022/05/11 10:41:03;;;;;;;3.58;2.25;;;;;;;35.59;22.86;99740.53;5031537;28;20283;-62
2022/05/11 10:43:56;;;;;;;4.65;2.20;;;;;;;32.93;24.78;99733.44;5039146;28;20185;-63
2022/05/11 10:46:40;;;;;;;2.30;2.15;;;;;;;31.08;28.09;99732.22;5031556;28;20213;-62
2022/05/11 10:49:26;;;;;;;5.82;2.67;;;;;;;30.58;29.80;99726.97;5031891;28;20633;-63
2022/05/11 10:52:00;;;;;;;6.32;2.80;;;;;;;29.93;30.65;99711.59;5051021;28;20235;-64
2022/05/11 10:54:57;;;;;;;3.92;2.60;;;;;;;29.74;31.58;99716.06;5032518;28;20186;-64
2022/05/11 10:57:44;;;;;;;3.17;2.42;;;;;;;29.73;30.27;99717.09;5031876;28;20177;-64
2022/05/11 11:00:18;;;;;;;3.30;2.60;;;;;;;29.58;31.15;99707.66;5012312;28;20637;-62
2022/05/11 11:03:07;;;;;;;3.28;2.53;;;;;;;29.70;30.78;99696.34;5064909;28;20266;-62
2022/05/11 11:09:18;;;;;;;4.57;2.60;;;;;;;29.19;30.66;99695.53;5041527;28;20247;-62
2022/05/11 11:11:52;;;;;;;4.65;3.88;;;;;;;28.39;31.22;99694.19;5067895;28;20704;-61
2022/05/11 11:14:26;;;;;;;3.75;2.50;;;;;;;28.60;32.57;99696.50;5058185;28;20192;-61
2022/05/11 11:16:52;;;;;;;4.28;2.78;;;;;;;28.66;31.35;99687.72;5047475;28;20223;-63
2022/05/11 11:19:18;;;;;;;4.45;3.25;;;;;;;28.52;31.87;99696.78;5054618;28;20200;-61
2022/05/11 11:21:44;;;;;;;10.43;6.07;;;;;;;28.37;31.49;99689.13;5052930;28;20254;-62
2022/05/11 11:24:23;;;;;;;6.40;3.70;;;;;;;28.28;32.16;99687.72;5039380;28;20778;-63
2022/05/11 11:26:53;;;;;;;5.43;3.58;;;;;;;28.45;31.58;99664.25;5051099;28;20636;-62
2022/05/11 11:29:24;;;;;;;5.65;3.13;;;;;;;28.09;32.10;99678.88;5052315;28;20173;-61
2022/05/11 11:31:58;;;;;;;4.90;2.70;;;;;;;28.07;33.07;99671.16;5037823;28;20224;-61
2022/05/11 11:34:29;;;;;;;5.82;5.05;;;;;;;28.32;32.33;99673.09;5056321;28;20543;-62
2022/05/11 11:36:55;;;;;;;5.72;2.80;;;;;;;28.36;32.57;99670.81;5054463;28;20917;-62
2022/05/11 11:39:52;;;;;;;6.18;3.15;;;;;;;28.24;31.93;99663.53;5055509;28;20287;-61
2022/05/11 11:42:31;;;;;;;4.00;3.00;;;;;;;28.28;33.20;99667.41;5062038;28;20246;-61
2022/05/11 11:44:57;;;;;;;10.43;8.13;;;;;;;28.31;32.92;99652.94;5045973;28;20209;-60
2022/05/11 11:47:26;;;;;;;5.28;4.22;;;;;;;28.13;33.22;99662.38;5055391;28;20278;-61
2022/05/11 11:49:57;;;;;;;6.13;3.65;;;;;;;28.17;33.69;99658.28;5055821;28;20170;-62
2022/05/11 11:52:35;;;;;;;8.18;4.90;;;;;;;28.20;32.93;99653.63;5077251;28;20718;-61
2022/05/11 11:55:02;;;;;;;3.80;2.92;;;;;;;28.10;30.57;99656.69;5054193;28;20280;-61
2022/05/11 11:57:31;;;;;;;3.88;3.22;;;;;;;28.24;31.79;99655.59;5049667;28;20186;-62
2022/05/11 12:00:05;;;;;;;6.60;4.88;;;;;;;28.47;31.26;99644.50;5035629;28;20790;-60
2022/05/11 12:02:40;;;;;;;6.95;5.75;;;;;;;28.28;31.75;99643.59;5024390;28;20283;-62
2022/05/11 12:05:29;;;;;;;7.10;5.05;;;;;;;28.17;32.11;99647.72;5034838;28;20211;-60
2022/05/11 12:16:53;;;;;;;4.53;3.67;;;;;;;28.35;31.98;99640.91;5034287;28;20319;-60
2022/05/11 12:19:19;;;;;;;4.03;3.63;;;;;;;28.49;31.37;99631.88;5075334;28;20184;-61
2022/05/11 12:22:02;;;;;;;11.65;10.48;;;;;;;28.50;31.58;99630.88;5054568;28;20319;-61